sensor_id;sensor_type;location;lat;lon;timestamp;P1;durP1;ratioP1;P2;durP2;ratioP2
50683;SDS011;36654;45.042;38.994;2023-02-21T00:01:39;4.13;;;3.00;;
50683;SDS011;36654;45.042;38.994;2023-02-21T00:04:23;12.20;;;2.58;;
50683;SDS011;36654;45.042;38.994;2023-02-21T00:07:07;4.65;;;2.55;;
50683;SDS011;36654;45.042;38.994;2023-02-21T00:09:51;3.22;;;2.38;;
50683;SDS011;36654;45.042;38.994;2023-02-21T00:12:35;6.35;;;2.85;;
50683;SDS011;36654;45.042;38.994;2023-02-21T00:15:19;3.28;;;2.40;;
50683;SDS011;36654;45.042;38.994;2023-02-21T00:18:03;3.00;;;2.28;;
50683;SDS011;36654;45.042;38.994;2023-02-21T00:20:46;3.88;;;2.08;;
50683;SDS011;36654;45.042;38.994;2023-02-21T00:23:34;3.72;;;2.17;;
50683;SDS011;36654;45.042;38.994;2023-02-21T00:26:19;3.92;;;2.33;;
50683;SDS011;36654;45.042;38.994;2023-02-21T00:29:04;2.80;;;2.42;;
50683;SDS011;36654;45.042;38.994;2023-02-21T00:31:49;5.97;;;2.50;;
50683;SDS011;36654;45.042;38.994;2023-02-21T00:34:33;5.70;;;2.55;;
50683;SDS011;36654;45.042;38.994;2023-02-21T00:37:17;9.57;;;2.85;;
50683;SDS011;36654;45.042;38.994;2023-02-21T00:40:01;13.80;;;2.97;;
50683;SDS011;36654;45.042;38.994;2023-02-21T00:42:45;5.82;;;2.58;;
50683;SDS011;36654;45.042;38.994;2023-02-21T00:45:29;7.20;;;2.85;;
50683;SDS011;36654;45.042;38.994;2023-02-21T00:48:18;6.68;;;2.65;;
50683;SDS011;36654;45.042;38.994;2023-02-21T00:51:06;8.40;;;3.13;;
50683;SDS011;36654;45.042;38.994;2023-02-21T00:53:50;4.88;;;2.42;;
50683;SDS011;36654;45.042;38.994;2023-02-21T00:56:34;4.22;;;2.58;;
50683;SDS011;36654;45.042;38.994;2023-02-21T00:59:18;7.18;;;2.88;;
50683;SDS011;36654;45.042;38.994;2023-02-21T01:02:03;5.75;;;2.72;;
50683;SDS011;36654;45.042;38.994;2023-02-21T01:04:47;4.75;;;2.63;;
50683;SDS011;36654;45.042;38.994;2023-02-21T01:07:31;5.63;;;2.42;;
50683;SDS011;36654;45.042;38.994;2023-02-21T01:10:15;4.68;;;2.45;;
50683;SDS011;36654;45.042;38.994;2023-02-21T01:12:59;10.23;;;3.00;;
50683;SDS011;36654;45.042;38.994;2023-02-21T01:15:43;5.43;;;2.28;;
50683;SDS011;36654;45.042;38.994;2023-02-21T01:18:28;5.55;;;2.80;;
50683;SDS011;36654;45.042;38.994;2023-02-21T01:21:12;4.13;;;2.45;;
50683;SDS011;36654;45.042;38.994;2023-02-21T01:23:58;3.55;;;2.58;;
50683;SDS011;36654;45.042;38.994;2023-02-21T01:26:43;2.88;;;2.08;;
50683;SDS011;36654;45.042;38.994;2023-02-21T01:29:27;3.13;;;1.88;;
50683;SDS011;36654;45.042;38.994;2023-02-21T01:32:11;7.38;;;2.60;;
50683;SDS011;36654;45.042;38.994;2023-02-21T01:34:55;6.38;;;2.17;;
50683;SDS011;36654;45.042;38.994;2023-02-21T01:37:39;6.18;;;2.47;;
50683;SDS011;36654;45.042;38.994;2023-02-21T01:40:24;5.95;;;2.85;;
50683;SDS011;36654;45.042;38.994;2023-02-21T01:43:12;7.32;;;2.30;;
50683;SDS011;36654;45.042;38.994;2023-02-21T01:46:04;2.75;;;2.47;;
50683;SDS011;36654;45.042;38.994;2023-02-21T01:48:50;6.78;;;2.90;;
50683;SDS011;36654;45.042;38.994;2023-02-21T01:51:36;6.90;;;2.97;;
50683;SDS011;36654;45.042;38.994;2023-02-21T01:54:24;6.55;;;2.67;;
50683;SDS011;36654;45.042;38.994;2023-02-21T01:57:12;7.70;;;2.47;;
50683;SDS011;36654;45.042;38.994;2023-02-21T01:59:58;3.22;;;1.92;;
50683;SDS011;36654;45.042;38.994;2023-02-21T02:05:38;3.70;;;1.92;;
50683;SDS011;36654;45.042;38.994;2023-02-21T02:08:26;8.40;;;2.47;;
50683;SDS011;36654;45.042;38.994;2023-02-21T02:12:01;3.15;;;2.33;;
50683;SDS011;36654;45.042;38.994;2023-02-21T02:17:19;2.15;;;1.98;;
50683;SDS011;36654;45.042;38.994;2023-02-21T02:31:20;8.23;;;2.58;;
50683;SDS011;36654;45.042;38.994;2023-02-21T02:45:39;3.38;;;2.45;;
50683;SDS011;36654;45.042;38.994;2023-02-21T02:48:19;4.53;;;2.10;;
50683;SDS011;36654;45.042;38.994;2023-02-21T02:50:48;7.18;;;2.17;;
50683;SDS011;36654;45.042;38.994;2023-02-21T02:53:17;3.45;;;2.42;;
50683;SDS011;36654;45.042;38.994;2023-02-21T02:58:32;7.45;;;2.25;;
50683;SDS011;36654;45.042;38.994;2023-02-21T03:01:27;4.95;;;2.35;;
50683;SDS011;36654;45.042;38.994;2023-02-21T03:04:02;4.43;;;2.72;;
50683;SDS011;36654;45.042;38.994;2023-02-21T03:09:17;3.88;;;1.90;;
50683;SDS011;36654;45.042;38.994;2023-02-21T03:12:31;4.00;;;2.20;;
50683;SDS011;36654;45.042;38.994;2023-02-21T03:18:04;4.45;;;1.95;;
50683;SDS011;36654;45.042;38.994;2023-02-21T03:20:32;3.30;;;1.77;;
50683;SDS011;36654;45.042;38.994;2023-02-21T03:23:01;4.00;;;2.10;;
50683;SDS011;36654;45.042;38.994;2023-02-21T03:25:29;4.80;;;2.10;;
50683;SDS011;36654;45.042;38.994;2023-02-21T03:27:56;2.85;;;1.65;;
50683;SDS011;36654;45.042;38.994;2023-02-21T03:30:24;4.53;;;2.13;;
50683;SDS011;36654;45.042;38.994;2023-02-21T03:32:51;6.65;;;2.70;;
50683;SDS011;36654;45.042;38.994;2023-02-21T03:35:18;3.15;;;2.20;;
50683;SDS011;36654;45.042;38.994;2023-02-21T03:37:53;3.38;;;1.80;;
50683;SDS011;36654;45.042;38.994;2023-02-21T03:42:51;3.28;;;1.90;;
50683;SDS011;36654;45.042;38.994;2023-02-21T03:45:18;9.02;;;2.45;;
50683;SDS011;36654;45.042;38.994;2023-02-21T03:47:44;3.17;;;2.60;;
50683;SDS011;36654;45.042;38.994;2023-02-21T03:50:09;3.05;;;1.95;;
50683;SDS011;36654;45.042;38.994;2023-02-21T03:52:36;6.20;;;2.05;;
50683;SDS011;36654;45.042;38.994;2023-02-21T03:55:02;3.45;;;2.22;;
50683;SDS011;36654;45.042;38.994;2023-02-21T03:57:28;3.75;;;2.55;;
50683;SDS011;36654;45.042;38.994;2023-02-21T03:59:53;4.05;;;2.38;;
50683;SDS011;36654;45.042;38.994;2023-02-21T04:02:19;4.05;;;2.35;;
50683;SDS011;36654;45.042;38.994;2023-02-21T04:04:45;4.63;;;2.22;;
50683;SDS011;36654;45.042;38.994;2023-02-21T04:07:12;5.28;;;2.20;;
50683;SDS011;36654;45.042;38.994;2023-02-21T04:09:39;5.65;;;2.70;;
50683;SDS011;36654;45.042;38.994;2023-02-21T04:12:05;4.00;;;2.22;;
50683;SDS011;36654;45.042;38.994;2023-02-21T04:14:31;4.13;;;2.72;;
50683;SDS011;36654;45.042;38.994;2023-02-21T04:16:56;3.90;;;2.40;;
50683;SDS011;36654;45.042;38.994;2023-02-21T04:19:22;4.30;;;2.60;;
50683;SDS011;36654;45.042;38.994;2023-02-21T04:21:47;3.50;;;2.25;;
50683;SDS011;36654;45.042;38.994;2023-02-21T04:24:13;5.93;;;3.58;;
50683;SDS011;36654;45.042;38.994;2023-02-21T04:26:39;1.90;;;1.80;;
50683;SDS011;36654;45.042;38.994;2023-02-21T04:29:04;2.45;;;2.25;;
50683;SDS011;36654;45.042;38.994;2023-02-21T04:31:30;2.58;;;2.30;;
50683;SDS011;36654;45.042;38.994;2023-02-21T04:33:57;4.65;;;1.80;;
50683;SDS011;36654;45.042;38.994;2023-02-21T04:36:23;6.43;;;2.55;;
50683;SDS011;36654;45.042;38.994;2023-02-21T04:38:48;2.05;;;1.85;;
50683;SDS011;36654;45.042;38.994;2023-02-21T04:41:14;3.63;;;2.15;;
50683;SDS011;36654;45.042;38.994;2023-02-21T04:43:41;2.25;;;1.77;;
50683;SDS011;36654;45.042;38.994;2023-02-21T04:46:08;2.63;;;1.92;;
50683;SDS011;36654;45.042;38.994;2023-02-21T04:48:34;2.00;;;1.80;;
50683;SDS011;36654;45.042;38.994;2023-02-21T04:51:00;2.45;;;2.05;;
50683;SDS011;36654;45.042;38.994;2023-02-21T04:53:25;2.47;;;2.28;;
50683;SDS011;36654;45.042;38.994;2023-02-21T04:55:51;2.63;;;2.20;;
50683;SDS011;36654;45.042;38.994;2023-02-21T04:58:17;2.80;;;1.90;;
50683;SDS011;36654;45.042;38.994;2023-02-21T05:00:42;2.10;;;1.90;;
50683;SDS011;36654;45.042;38.994;2023-02-21T05:03:08;4.07;;;2.50;;
50683;SDS011;36654;45.042;38.994;2023-02-21T05:05:33;3.30;;;2.05;;
50683;SDS011;36654;45.042;38.994;2023-02-21T05:07:59;4.88;;;2.40;;
50683;SDS011;36654;45.042;38.994;2023-02-21T05:10:24;6.43;;;2.28;;
50683;SDS011;36654;45.042;38.994;2023-02-21T05:12:50;3.90;;;2.17;;
50683;SDS011;36654;45.042;38.994;2023-02-21T05:15:16;3.28;;;1.77;;
50683;SDS011;36654;45.042;38.994;2023-02-21T05:17:42;2.38;;;1.83;;
50683;SDS011;36654;45.042;38.994;2023-02-21T05:20:07;7.18;;;2.47;;
50683;SDS011;36654;45.042;38.994;2023-02-21T05:22:39;4.22;;;2.28;;
50683;SDS011;36654;45.042;38.994;2023-02-21T05:25:06;5.28;;;2.38;;
50683;SDS011;36654;45.042;38.994;2023-02-21T05:27:38;4.60;;;2.85;;
50683;SDS011;36654;45.042;38.994;2023-02-21T05:30:04;4.57;;;2.92;;
50683;SDS011;36654;45.042;38.994;2023-02-21T05:32:30;10.27;;;3.20;;
50683;SDS011;36654;45.042;38.994;2023-02-21T05:34:55;5.07;;;2.95;;
50683;SDS011;36654;45.042;38.994;2023-02-21T05:37:21;4.38;;;2.70;;
50683;SDS011;36654;45.042;38.994;2023-02-21T05:39:47;7.13;;;2.67;;
50683;SDS011;36654;45.042;38.994;2023-02-21T05:42:12;3.53;;;2.53;;
50683;SDS011;36654;45.042;38.994;2023-02-21T05:44:38;5.38;;;2.53;;
50683;SDS011;36654;45.042;38.994;2023-02-21T05:47:04;3.47;;;2.78;;
50683;SDS011;36654;45.042;38.994;2023-02-21T05:51:58;5.70;;;2.58;;
50683;SDS011;36654;45.042;38.994;2023-02-21T05:54:24;4.25;;;2.47;;
50683;SDS011;36654;45.042;38.994;2023-02-21T05:56:50;7.00;;;2.42;;
50683;SDS011;36654;45.042;38.994;2023-02-21T05:59:18;2.78;;;2.05;;
50683;SDS011;36654;45.042;38.994;2023-02-21T06:01:48;4.65;;;3.08;;
50683;SDS011;36654;45.042;38.994;2023-02-21T06:06:39;3.33;;;1.92;;
50683;SDS011;36654;45.042;38.994;2023-02-21T06:09:05;7.45;;;2.30;;
50683;SDS011;36654;45.042;38.994;2023-02-21T06:11:32;3.72;;;2.03;;
50683;SDS011;36654;45.042;38.994;2023-02-21T06:14:00;7.35;;;2.30;;
50683;SDS011;36654;45.042;38.994;2023-02-21T06:16:35;3.35;;;1.95;;
50683;SDS011;36654;45.042;38.994;2023-02-21T06:19:03;3.72;;;1.73;;
50683;SDS011;36654;45.042;38.994;2023-02-21T06:21:30;3.70;;;2.03;;
50683;SDS011;36654;45.042;38.994;2023-02-21T06:23:56;7.85;;;1.65;;
50683;SDS011;36654;45.042;38.994;2023-02-21T06:26:22;2.50;;;2.08;;
50683;SDS011;36654;45.042;38.994;2023-02-21T06:28:48;2.95;;;1.73;;
50683;SDS011;36654;45.042;38.994;2023-02-21T06:31:18;4.95;;;2.00;;
50683;SDS011;36654;45.042;38.994;2023-02-21T06:33:45;3.15;;;1.83;;
50683;SDS011;36654;45.042;38.994;2023-02-21T06:36:16;5.55;;;2.20;;
50683;SDS011;36654;45.042;38.994;2023-02-21T06:38:44;5.78;;;2.00;;
50683;SDS011;36654;45.042;38.994;2023-02-21T06:41:13;2.28;;;1.70;;
50683;SDS011;36654;45.042;38.994;2023-02-21T06:43:40;4.28;;;2.10;;
50683;SDS011;36654;45.042;38.994;2023-02-21T06:46:05;2.15;;;1.80;;
50683;SDS011;36654;45.042;38.994;2023-02-21T06:48:31;4.15;;;1.80;;
50683;SDS011;36654;45.042;38.994;2023-02-21T06:50:56;4.35;;;1.73;;
50683;SDS011;36654;45.042;38.994;2023-02-21T06:53:22;5.40;;;1.48;;
50683;SDS011;36654;45.042;38.994;2023-02-21T06:55:48;3.10;;;1.77;;
50683;SDS011;36654;45.042;38.994;2023-02-21T06:58:13;2.90;;;1.90;;
50683;SDS011;36654;45.042;38.994;2023-02-21T07:00:39;3.28;;;2.20;;
50683;SDS011;36654;45.042;38.994;2023-02-21T07:03:04;6.50;;;2.47;;
50683;SDS011;36654;45.042;38.994;2023-02-21T07:05:30;3.75;;;1.65;;
50683;SDS011;36654;45.042;38.994;2023-02-21T07:08:01;1.88;;;1.52;;
50683;SDS011;36654;45.042;38.994;2023-02-21T07:10:27;4.13;;;1.65;;
50683;SDS011;36654;45.042;38.994;2023-02-21T07:12:53;9.60;;;2.55;;
50683;SDS011;36654;45.042;38.994;2023-02-21T07:15:19;2.70;;;1.73;;
50683;SDS011;36654;45.042;38.994;2023-02-21T07:17:44;6.43;;;2.38;;
50683;SDS011;36654;45.042;38.994;2023-02-21T07:20:10;1.70;;;1.20;;
50683;SDS011;36654;45.042;38.994;2023-02-21T07:22:35;3.33;;;1.90;;
50683;SDS011;36654;45.042;38.994;2023-02-21T07:25:01;3.63;;;1.63;;
50683;SDS011;36654;45.042;38.994;2023-02-21T07:27:27;2.20;;;1.88;;
50683;SDS011;36654;45.042;38.994;2023-02-21T07:29:53;1.35;;;1.25;;
50683;SDS011;36654;45.042;38.994;2023-02-21T07:32:18;2.85;;;1.65;;
50683;SDS011;36654;45.042;38.994;2023-02-21T07:34:44;1.45;;;1.35;;
50683;SDS011;36654;45.042;38.994;2023-02-21T07:37:10;3.95;;;1.58;;
50683;SDS011;36654;45.042;38.994;2023-02-21T07:39:36;3.25;;;1.65;;
50683;SDS011;36654;45.042;38.994;2023-02-21T07:42:02;2.40;;;1.70;;
50683;SDS011;36654;45.042;38.994;2023-02-21T07:44:29;2.08;;;1.27;;
50683;SDS011;36654;45.042;38.994;2023-02-21T07:46:55;1.33;;;1.20;;
50683;SDS011;36654;45.042;38.994;2023-02-21T07:49:22;2.33;;;1.55;;
50683;SDS011;36654;45.042;38.994;2023-02-21T07:51:48;1.63;;;1.10;;
50683;SDS011;36654;45.042;38.994;2023-02-21T07:54:14;3.90;;;1.17;;
50683;SDS011;36654;45.042;38.994;2023-02-21T07:56:44;5.75;;;1.25;;
50683;SDS011;36654;45.042;38.994;2023-02-21T07:59:10;3.33;;;1.40;;
50683;SDS011;36654;45.042;38.994;2023-02-21T08:01:36;0.85;;;0.85;;
50683;SDS011;36654;45.042;38.994;2023-02-21T08:04:02;1.30;;;0.95;;
50683;SDS011;36654;45.042;38.994;2023-02-21T08:06:28;3.75;;;1.13;;
50683;SDS011;36654;45.042;38.994;2023-02-21T08:08:53;0.60;;;0.60;;
50683;SDS011;36654;45.042;38.994;2023-02-21T08:11:20;1.15;;;0.98;;
50683;SDS011;36654;45.042;38.994;2023-02-21T08:13:45;2.25;;;0.90;;
50683;SDS011;36654;45.042;38.994;2023-02-21T08:16:12;2.10;;;1.45;;
50683;SDS011;36654;45.042;38.994;2023-02-21T08:18:37;2.92;;;1.08;;
50683;SDS011;36654;45.042;38.994;2023-02-21T08:21:03;2.80;;;0.95;;
50683;SDS011;36654;45.042;38.994;2023-02-21T08:23:33;0.63;;;0.63;;
50683;SDS011;36654;45.042;38.994;2023-02-21T08:25:58;0.82;;;0.73;;
50683;SDS011;36654;45.042;38.994;2023-02-21T08:28:24;0.80;;;0.80;;
50683;SDS011;36654;45.042;38.994;2023-02-21T08:30:50;0.77;;;0.77;;
50683;SDS011;36654;45.042;38.994;2023-02-21T08:33:16;1.05;;;0.55;;
50683;SDS011;36654;45.042;38.994;2023-02-21T08:35:42;1.33;;;0.70;;
50683;SDS011;36654;45.042;38.994;2023-02-21T08:38:07;0.40;;;0.40;;
50683;SDS011;36654;45.042;38.994;2023-02-21T08:40:34;1.98;;;0.80;;
50683;SDS011;36654;45.042;38.994;2023-02-21T08:43:00;1.10;;;0.70;;
50683;SDS011;36654;45.042;38.994;2023-02-21T08:45:26;2.35;;;0.70;;
50683;SDS011;36654;45.042;38.994;2023-02-21T08:47:53;0.65;;;0.65;;
50683;SDS011;36654;45.042;38.994;2023-02-21T08:50:19;2.10;;;1.00;;
50683;SDS011;36654;45.042;38.994;2023-02-21T08:52:47;3.25;;;0.70;;
50683;SDS011;36654;45.042;38.994;2023-02-21T08:55:14;0.85;;;0.85;;
50683;SDS011;36654;45.042;38.994;2023-02-21T08:57:40;2.97;;;0.90;;
50683;SDS011;36654;45.042;38.994;2023-02-21T09:00:06;1.65;;;0.68;;
50683;SDS011;36654;45.042;38.994;2023-02-21T09:02:36;0.63;;;0.63;;
50683;SDS011;36654;45.042;38.994;2023-02-21T09:05:06;0.80;;;0.80;;
50683;SDS011;36654;45.042;38.994;2023-02-21T09:07:40;0.50;;;0.50;;
50683;SDS011;36654;45.042;38.994;2023-02-21T09:10:06;1.27;;;0.43;;
50683;SDS011;36654;45.042;38.994;2023-02-21T09:12:35;1.67;;;0.25;;
50683;SDS011;36654;45.042;38.994;2023-02-21T09:15:01;2.10;;;0.63;;
50683;SDS011;36654;45.042;38.994;2023-02-21T09:17:27;0.85;;;0.68;;
50683;SDS011;36654;45.042;38.994;2023-02-21T09:19:58;1.75;;;1.13;;
50683;SDS011;36654;45.042;38.994;2023-02-21T09:22:25;3.13;;;1.00;;
50683;SDS011;36654;45.042;38.994;2023-02-21T09:24:50;2.13;;;0.43;;
50683;SDS011;36654;45.042;38.994;2023-02-21T09:27:16;0.70;;;0.60;;
50683;SDS011;36654;45.042;38.994;2023-02-21T09:29:42;0.73;;;0.60;;
50683;SDS011;36654;45.042;38.994;2023-02-21T09:32:08;0.77;;;0.70;;
50683;SDS011;36654;45.042;38.994;2023-02-21T09:34:34;3.00;;;0.90;;
50683;SDS011;36654;45.042;38.994;2023-02-21T09:37:03;0.60;;;0.60;;
50683;SDS011;36654;45.042;38.994;2023-02-21T09:39:29;0.77;;;0.70;;
50683;SDS011;36654;45.042;38.994;2023-02-21T09:41:55;2.28;;;1.00;;
50683;SDS011;36654;45.042;38.994;2023-02-21T09:44:25;1.13;;;0.80;;
50683;SDS011;36654;45.042;38.994;2023-02-21T09:46:55;0.68;;;0.68;;
50683;SDS011;36654;45.042;38.994;2023-02-21T09:49:33;0.85;;;0.65;;
50683;SDS011;36654;45.042;38.994;2023-02-21T09:52:21;2.40;;;1.25;;
50683;SDS011;36654;45.042;38.994;2023-02-21T09:54:56;2.25;;;0.65;;
50683;SDS011;36654;45.042;38.994;2023-02-21T09:57:24;0.80;;;0.70;;
50683;SDS011;36654;45.042;38.994;2023-02-21T09:59:49;3.20;;;1.17;;
50683;SDS011;36654;45.042;38.994;2023-02-21T10:02:31;1.67;;;0.90;;
50683;SDS011;36654;45.042;38.994;2023-02-21T10:08:05;2.17;;;1.10;;
50683;SDS011;36654;45.042;38.994;2023-02-21T10:18:42;0.70;;;0.70;;
50683;SDS011;36654;45.042;38.994;2023-02-21T10:21:24;1.27;;;0.73;;
50683;SDS011;36654;45.042;38.994;2023-02-21T10:23:54;0.40;;;0.40;;
50683;SDS011;36654;45.042;38.994;2023-02-21T10:26:29;0.90;;;0.88;;
50683;SDS011;36654;45.042;38.994;2023-02-21T10:28:59;0.60;;;0.60;;
50683;SDS011;36654;45.042;38.994;2023-02-21T10:33:59;2.83;;;0.82;;
50683;SDS011;36654;45.042;38.994;2023-02-21T10:36:27;2.55;;;1.35;;
50683;SDS011;36654;45.042;38.994;2023-02-21T10:41:39;1.80;;;1.15;;
50683;SDS011;36654;45.042;38.994;2023-02-21T10:46:44;2.40;;;1.00;;
50683;SDS011;36654;45.042;38.994;2023-02-21T10:52:10;2.47;;;1.23;;
50683;SDS011;36654;45.042;38.994;2023-02-21T10:54:36;2.17;;;1.50;;
50683;SDS011;36654;45.042;38.994;2023-02-21T10:57:03;1.83;;;1.00;;
50683;SDS011;36654;45.042;38.994;2023-02-21T10:59:40;1.42;;;1.05;;
50683;SDS011;36654;45.042;38.994;2023-02-21T11:04:55;1.88;;;0.93;;
50683;SDS011;36654;45.042;38.994;2023-02-21T11:07:33;1.83;;;1.50;;
50683;SDS011;36654;45.042;38.994;2023-02-21T11:09:59;1.60;;;1.50;;
50683;SDS011;36654;45.042;38.994;2023-02-21T11:12:25;2.05;;;1.40;;
50683;SDS011;36654;45.042;38.994;2023-02-21T11:17:24;1.40;;;1.25;;
50683;SDS011;36654;45.042;38.994;2023-02-21T11:22:34;1.67;;;1.30;;
50683;SDS011;36654;45.042;38.994;2023-02-21T11:25:03;1.83;;;1.50;;
50683;SDS011;36654;45.042;38.994;2023-02-21T11:30:13;1.85;;;1.20;;
50683;SDS011;36654;45.042;38.994;2023-02-21T11:32:47;1.90;;;1.50;;
50683;SDS011;36654;45.042;38.994;2023-02-21T11:37:48;1.60;;;1.30;;
50683;SDS011;36654;45.042;38.994;2023-02-21T11:40:23;4.57;;;1.52;;
50683;SDS011;36654;45.042;38.994;2023-02-21T11:43:10;2.95;;;1.50;;
50683;SDS011;36654;45.042;38.994;2023-02-21T11:45:42;1.35;;;1.15;;
50683;SDS011;36654;45.042;38.994;2023-02-21T11:48:30;4.18;;;1.50;;
50683;SDS011;36654;45.042;38.994;2023-02-21T11:51:04;1.65;;;1.20;;
50683;SDS011;36654;45.042;38.994;2023-02-21T11:53:41;2.80;;;1.45;;
50683;SDS011;36654;45.042;38.994;2023-02-21T11:56:25;3.47;;;1.50;;
50683;SDS011;36654;45.042;38.994;2023-02-21T11:59:11;1.45;;;1.35;;
50683;SDS011;36654;45.042;38.994;2023-02-21T12:04:51;1.40;;;1.30;;
50683;SDS011;36654;45.042;38.994;2023-02-21T12:07:32;4.38;;;1.33;;
50683;SDS011;36654;45.042;38.994;2023-02-21T12:27:10;0.95;;;0.95;;
50683;SDS011;36654;45.042;38.994;2023-02-21T12:29:46;4.28;;;1.63;;
50683;SDS011;36654;45.042;38.994;2023-02-21T12:37:55;2.65;;;1.40;;
50683;SDS011;36654;45.042;38.994;2023-02-21T12:43:21;2.42;;;1.50;;
50683;SDS011;36654;45.042;38.994;2023-02-21T12:49:02;1.52;;;1.10;;
50683;SDS011;36654;45.042;38.994;2023-02-21T12:51:44;1.05;;;1.05;;
50683;SDS011;36654;45.042;38.994;2023-02-21T12:54:18;1.90;;;1.00;;
50683;SDS011;36654;45.042;38.994;2023-02-21T12:56:52;2.22;;;1.27;;
50683;SDS011;36654;45.042;38.994;2023-02-21T12:59:25;1.33;;;0.85;;
50683;SDS011;36654;45.042;38.994;2023-02-21T13:02:35;1.15;;;1.10;;
50683;SDS011;36654;45.042;38.994;2023-02-21T13:05:13;1.10;;;1.10;;
50683;SDS011;36654;45.042;38.994;2023-02-21T13:07:45;1.30;;;1.20;;
50683;SDS011;36654;45.042;38.994;2023-02-21T13:10:21;1.83;;;1.08;;
50683;SDS011;36654;45.042;38.994;2023-02-21T13:12:57;1.48;;;1.30;;
50683;SDS011;36654;45.042;38.994;2023-02-21T13:15:39;1.50;;;1.40;;
50683;SDS011;36654;45.042;38.994;2023-02-21T13:18:25;1.67;;;1.10;;
50683;SDS011;36654;45.042;38.994;2023-02-21T13:21:01;3.15;;;1.75;;
50683;SDS011;36654;45.042;38.994;2023-02-21T13:23:30;2.58;;;1.77;;
50683;SDS011;36654;45.042;38.994;2023-02-21T13:29:41;4.63;;;1.60;;
50683;SDS011;36654;45.042;38.994;2023-02-21T13:32:09;4.95;;;1.48;;
50683;SDS011;36654;45.042;38.994;2023-02-21T13:34:58;2.47;;;1.60;;
50683;SDS011;36654;45.042;38.994;2023-02-21T13:37:25;2.13;;;1.67;;
50683;SDS011;36654;45.042;38.994;2023-02-21T13:42:40;2.55;;;1.90;;
50683;SDS011;36654;45.042;38.994;2023-02-21T13:45:16;6.20;;;2.17;;
50683;SDS011;36654;45.042;38.994;2023-02-21T13:55:33;3.47;;;2.22;;
50683;SDS011;36654;45.042;38.994;2023-02-21T14:10:45;5.57;;;2.67;;
50683;SDS011;36654;45.042;38.994;2023-02-21T14:13:18;6.57;;;3.08;;
50683;SDS011;36654;45.042;38.994;2023-02-21T14:21:03;4.38;;;2.60;;
50683;SDS011;36654;45.042;38.994;2023-02-21T14:23:55;6.68;;;2.72;;
50683;SDS011;36654;45.042;38.994;2023-02-21T14:26:34;7.07;;;3.28;;
50683;SDS011;36654;45.042;38.994;2023-02-21T14:37:33;3.65;;;2.65;;
50683;SDS011;36654;45.042;38.994;2023-02-21T14:40:13;3.28;;;2.35;;
50683;SDS011;36654;45.042;38.994;2023-02-21T14:48:43;7.72;;;2.90;;
50683;SDS011;36654;45.042;38.994;2023-02-21T14:57:11;5.38;;;2.80;;
50683;SDS011;36654;45.042;38.994;2023-02-21T15:00:03;4.22;;;3.15;;
50683;SDS011;36654;45.042;38.994;2023-02-21T15:08:11;9.60;;;3.65;;
50683;SDS011;36654;45.042;38.994;2023-02-21T15:10:40;7.90;;;3.78;;
50683;SDS011;36654;45.042;38.994;2023-02-21T15:13:22;7.88;;;4.18;;
50683;SDS011;36654;45.042;38.994;2023-02-21T15:16:09;10.30;;;3.95;;
50683;SDS011;36654;45.042;38.994;2023-02-21T15:18:38;7.50;;;4.05;;
50683;SDS011;36654;45.042;38.994;2023-02-21T15:23:41;10.23;;;3.92;;
50683;SDS011;36654;45.042;38.994;2023-02-21T15:28:43;10.82;;;4.18;;
50683;SDS011;36654;45.042;38.994;2023-02-21T15:31:10;9.88;;;4.30;;
50683;SDS011;36654;45.042;38.994;2023-02-21T15:33:40;10.82;;;4.50;;
50683;SDS011;36654;45.042;38.994;2023-02-21T15:38:46;21.35;;;5.85;;
50683;SDS011;36654;45.042;38.994;2023-02-21T15:41:27;11.48;;;5.57;;
50683;SDS011;36654;45.042;38.994;2023-02-21T15:44:10;8.52;;;4.88;;
50683;SDS011;36654;45.042;38.994;2023-02-21T15:47:01;11.52;;;5.18;;
50683;SDS011;36654;45.042;38.994;2023-02-21T15:49:34;14.55;;;5.38;;
50683;SDS011;36654;45.042;38.994;2023-02-21T15:52:04;12.90;;;5.13;;
50683;SDS011;36654;45.042;38.994;2023-02-21T15:54:31;13.57;;;5.60;;
50683;SDS011;36654;45.042;38.994;2023-02-21T15:56:59;14.43;;;5.97;;
50683;SDS011;36654;45.042;38.994;2023-02-21T15:59:28;11.57;;;6.32;;
50683;SDS011;36654;45.042;38.994;2023-02-21T16:04:41;10.85;;;5.20;;
50683;SDS011;36654;45.042;38.994;2023-02-21T16:07:12;12.98;;;5.13;;
50683;SDS011;36654;45.042;38.994;2023-02-21T16:09:44;11.88;;;4.63;;
50683;SDS011;36654;45.042;38.994;2023-02-21T16:14:45;9.32;;;4.45;;
50683;SDS011;36654;45.042;38.994;2023-02-21T16:17:26;9.20;;;4.15;;
50683;SDS011;36654;45.042;38.994;2023-02-21T16:20:00;16.20;;;4.88;;
50683;SDS011;36654;45.042;38.994;2023-02-21T16:22:38;11.13;;;4.25;;
50683;SDS011;36654;45.042;38.994;2023-02-21T16:27:37;9.27;;;4.00;;
50683;SDS011;36654;45.042;38.994;2023-02-21T16:30:04;8.73;;;3.90;;
50683;SDS011;36654;45.042;38.994;2023-02-21T16:32:32;5.68;;;3.70;;
50683;SDS011;36654;45.042;38.994;2023-02-21T16:34:59;11.15;;;4.68;;
50683;SDS011;36654;45.042;38.994;2023-02-21T16:37:25;5.63;;;3.85;;
50683;SDS011;36654;45.042;38.994;2023-02-21T16:39:52;8.18;;;3.95;;
50683;SDS011;36654;45.042;38.994;2023-02-21T16:42:18;8.07;;;4.35;;
50683;SDS011;36654;45.042;38.994;2023-02-21T16:44:44;8.27;;;3.90;;
50683;SDS011;36654;45.042;38.994;2023-02-21T16:47:15;7.70;;;4.05;;
50683;SDS011;36654;45.042;38.994;2023-02-21T16:49:42;9.57;;;4.65;;
50683;SDS011;36654;45.042;38.994;2023-02-21T16:52:17;6.40;;;3.55;;
50683;SDS011;36654;45.042;38.994;2023-02-21T16:54:43;8.77;;;4.72;;
50683;SDS011;36654;45.042;38.994;2023-02-21T16:57:09;7.28;;;4.43;;
50683;SDS011;36654;45.042;38.994;2023-02-21T16:59:35;14.25;;;4.80;;
50683;SDS011;36654;45.042;38.994;2023-02-21T17:02:02;9.65;;;4.65;;
50683;SDS011;36654;45.042;38.994;2023-02-21T17:04:29;11.25;;;5.13;;
50683;SDS011;36654;45.042;38.994;2023-02-21T17:07:02;16.05;;;5.25;;
50683;SDS011;36654;45.042;38.994;2023-02-21T17:09:30;8.65;;;4.68;;
50683;SDS011;36654;45.042;38.994;2023-02-21T17:12:06;15.05;;;5.68;;
50683;SDS011;36654;45.042;38.994;2023-02-21T17:14:32;14.93;;;4.55;;
50683;SDS011;36654;45.042;38.994;2023-02-21T17:16:59;13.07;;;5.32;;
50683;SDS011;36654;45.042;38.994;2023-02-21T17:19:24;12.73;;;5.68;;
50683;SDS011;36654;45.042;38.994;2023-02-21T17:21:51;13.85;;;4.60;;
50683;SDS011;36654;45.042;38.994;2023-02-21T17:24:17;15.88;;;5.53;;
50683;SDS011;36654;45.042;38.994;2023-02-21T17:26:43;8.13;;;4.15;;
50683;SDS011;36654;45.042;38.994;2023-02-21T17:29:09;15.40;;;6.30;;
50683;SDS011;36654;45.042;38.994;2023-02-21T17:31:35;14.07;;;5.50;;
50683;SDS011;36654;45.042;38.994;2023-02-21T17:34:01;12.77;;;6.50;;
50683;SDS011;36654;45.042;38.994;2023-02-21T17:36:27;12.80;;;5.45;;
50683;SDS011;36654;45.042;38.994;2023-02-21T17:38:53;14.15;;;5.43;;
50683;SDS011;36654;45.042;38.994;2023-02-21T17:41:20;13.13;;;5.32;;
50683;SDS011;36654;45.042;38.994;2023-02-21T17:43:46;11.65;;;5.72;;
50683;SDS011;36654;45.042;38.994;2023-02-21T17:46:12;14.20;;;5.55;;
50683;SDS011;36654;45.042;38.994;2023-02-21T17:48:39;9.45;;;4.53;;
50683;SDS011;36654;45.042;38.994;2023-02-21T17:51:06;12.43;;;5.38;;
50683;SDS011;36654;45.042;38.994;2023-02-21T17:53:32;9.27;;;5.25;;
50683;SDS011;36654;45.042;38.994;2023-02-21T17:55:58;12.45;;;5.22;;
50683;SDS011;36654;45.042;38.994;2023-02-21T17:58:25;16.48;;;6.30;;
50683;SDS011;36654;45.042;38.994;2023-02-21T18:00:51;13.73;;;5.65;;
50683;SDS011;36654;45.042;38.994;2023-02-21T18:03:19;15.23;;;6.10;;
50683;SDS011;36654;45.042;38.994;2023-02-21T18:05:46;14.40;;;5.93;;